sensor_id;sensor_type;location;lat;lon;timestamp;P1;durP1;ratioP1;P2;durP2;ratioP2
19095;SDS011;9680;52.520;13.332;2024-03-07T00:00:10;84.10;;;22.03;;
19095;SDS011;9680;52.520;13.332;2024-03-07T00:02:42;100.50;;;24.27;;
19095;SDS011;9680;52.520;13.332;2024-03-07T00:05:09;102.33;;;21.97;;
19095;SDS011;9680;52.520;13.332;2024-03-07T00:07:38;81.60;;;21.97;;
19095;SDS011;9680;52.520;13.332;2024-03-07T00:10:05;88.50;;;21.83;;
19095;SDS011;9680;52.520;13.332;2024-03-07T00:12:33;96.97;;;22.40;;
19095;SDS011;9680;52.520;13.332;2024-03-07T00:15:00;82.77;;;22.37;;
19095;SDS011;9680;52.520;13.332;2024-03-07T00:17:29;82.27;;;21.83;;
19095;SDS011;9680;52.520;13.332;2024-03-07T00:19:55;94.70;;;22.47;;
19095;SDS011;9680;52.520;13.332;2024-03-07T00:22:21;99.37;;;23.20;;
19095;SDS011;9680;52.520;13.332;2024-03-07T00:24:49;93.20;;;22.20;;
19095;SDS011;9680;52.520;13.332;2024-03-07T00:27:16;88.87;;;23.20;;
19095;SDS011;9680;52.520;13.332;2024-03-07T00:29:48;96.50;;;23.60;;
19095;SDS011;9680;52.520;13.332;2024-03-07T00:32:19;95.07;;;23.27;;
19095;SDS011;9680;52.520;13.332;2024-03-07T00:34:48;111.40;;;22.20;;
19095;SDS011;9680;52.520;13.332;2024-03-07T00:37:14;100.93;;;24.07;;
19095;SDS011;9680;52.520;13.332;2024-03-07T00:39:42;108.27;;;23.80;;
19095;SDS011;9680;52.520;13.332;2024-03-07T00:42:09;86.70;;;20.70;;
19095;SDS011;9680;52.520;13.332;2024-03-07T00:44:36;82.00;;;21.57;;
19095;SDS011;9680;52.520;13.332;2024-03-07T00:47:03;81.63;;;22.13;;
19095;SDS011;9680;52.520;13.332;2024-03-07T00:49:30;86.47;;;21.17;;
19095;SDS011;9680;52.520;13.332;2024-03-07T00:52:03;87.47;;;21.10;;
19095;SDS011;9680;52.520;13.332;2024-03-07T00:54:31;84.13;;;21.90;;
19095;SDS011;9680;52.520;13.332;2024-03-07T00:56:57;109.23;;;22.00;;
19095;SDS011;9680;52.520;13.332;2024-03-07T00:59:24;111.43;;;22.40;;
19095;SDS011;9680;52.520;13.332;2024-03-07T01:01:51;94.10;;;22.87;;
19095;SDS011;9680;52.520;13.332;2024-03-07T01:04:19;94.07;;;22.20;;
19095;SDS011;9680;52.520;13.332;2024-03-07T01:06:46;91.00;;;22.00;;
19095;SDS011;9680;52.520;13.332;2024-03-07T01:09:14;97.17;;;22.47;;
19095;SDS011;9680;52.520;13.332;2024-03-07T01:11:44;95.57;;;22.13;;
19095;SDS011;9680;52.520;13.332;2024-03-07T01:14:11;79.20;;;21.80;;
19095;SDS011;9680;52.520;13.332;2024-03-07T01:16:38;89.43;;;21.90;;
19095;SDS011;9680;52.520;13.332;2024-03-07T01:19:05;86.77;;;20.97;;
19095;SDS011;9680;52.520;13.332;2024-03-07T01:21:33;98.37;;;21.20;;
19095;SDS011;9680;52.520;13.332;2024-03-07T01:24:00;81.57;;;21.40;;
19095;SDS011;9680;52.520;13.332;2024-03-07T01:26:28;88.73;;;21.63;;
19095;SDS011;9680;52.520;13.332;2024-03-07T01:28:55;81.47;;;21.00;;
19095;SDS011;9680;52.520;13.332;2024-03-07T01:31:23;87.63;;;21.37;;
19095;SDS011;9680;52.520;13.332;2024-03-07T01:33:50;86.60;;;20.87;;
19095;SDS011;9680;52.520;13.332;2024-03-07T01:36:18;77.03;;;20.50;;
19095;SDS011;9680;52.520;13.332;2024-03-07T01:38:45;87.83;;;20.90;;
19095;SDS011;9680;52.520;13.332;2024-03-07T01:41:12;84.60;;;20.77;;
19095;SDS011;9680;52.520;13.332;2024-03-07T01:43:41;86.07;;;20.43;;
19095;SDS011;9680;52.520;13.332;2024-03-07T01:46:08;91.10;;;20.80;;
19095;SDS011;9680;52.520;13.332;2024-03-07T01:48:38;83.07;;;21.13;;
19095;SDS011;9680;52.520;13.332;2024-03-07T01:51:05;74.03;;;20.27;;
19095;SDS011;9680;52.520;13.332;2024-03-07T01:53:33;77.97;;;20.43;;
19095;SDS011;9680;52.520;13.332;2024-03-07T01:55:59;78.70;;;19.70;;
19095;SDS011;9680;52.520;13.332;2024-03-07T01:58:27;89.23;;;19.30;;
19095;SDS011;9680;52.520;13.332;2024-03-07T02:00:57;79.77;;;21.40;;
19095;SDS011;9680;52.520;13.332;2024-03-07T02:03:24;71.70;;;19.33;;
19095;SDS011;9680;52.520;13.332;2024-03-07T02:05:51;73.07;;;18.00;;
19095;SDS011;9680;52.520;13.332;2024-03-07T02:08:18;78.27;;;19.97;;
19095;SDS011;9680;52.520;13.332;2024-03-07T02:10:45;77.23;;;20.57;;
19095;SDS011;9680;52.520;13.332;2024-03-07T02:13:12;78.90;;;20.60;;
19095;SDS011;9680;52.520;13.332;2024-03-07T02:15:39;87.97;;;20.57;;
19095;SDS011;9680;52.520;13.332;2024-03-07T02:18:09;70.33;;;19.23;;
19095;SDS011;9680;52.520;13.332;2024-03-07T02:20:36;71.40;;;19.80;;
19095;SDS011;9680;52.520;13.332;2024-03-07T02:23:04;81.60;;;20.80;;
19095;SDS011;9680;52.520;13.332;2024-03-07T02:25:31;66.97;;;19.50;;
19095;SDS011;9680;52.520;13.332;2024-03-07T02:28:03;75.93;;;19.90;;
19095;SDS011;9680;52.520;13.332;2024-03-07T02:30:30;89.03;;;21.50;;
19095;SDS011;9680;52.520;13.332;2024-03-07T02:32:57;78.23;;;20.17;;
19095;SDS011;9680;52.520;13.332;2024-03-07T02:35:31;82.97;;;20.73;;
19095;SDS011;9680;52.520;13.332;2024-03-07T02:37:59;81.13;;;20.70;;
19095;SDS011;9680;52.520;13.332;2024-03-07T02:40:27;70.97;;;20.37;;
19095;SDS011;9680;52.520;13.332;2024-03-07T02:42:54;79.00;;;20.57;;
19095;SDS011;9680;52.520;13.332;2024-03-07T02:45:21;82.17;;;22.67;;
19095;SDS011;9680;52.520;13.332;2024-03-07T02:47:47;80.80;;;22.07;;
19095;SDS011;9680;52.520;13.332;2024-03-07T02:50:14;84.83;;;21.57;;
19095;SDS011;9680;52.520;13.332;2024-03-07T02:52:41;76.27;;;20.37;;
19095;SDS011;9680;52.520;13.332;2024-03-07T02:55:08;76.67;;;20.63;;
19095;SDS011;9680;52.520;13.332;2024-03-07T02:57:37;71.83;;;21.13;;
19095;SDS011;9680;52.520;13.332;2024-03-07T03:00:05;83.50;;;21.33;;
19095;SDS011;9680;52.520;13.332;2024-03-07T03:02:44;82.30;;;21.23;;
19095;SDS011;9680;52.520;13.332;2024-03-07T03:05:12;78.50;;;20.70;;
19095;SDS011;9680;52.520;13.332;2024-03-07T03:07:39;81.03;;;20.70;;
19095;SDS011;9680;52.520;13.332;2024-03-07T03:10:06;75.93;;;21.60;;
19095;SDS011;9680;52.520;13.332;2024-03-07T03:12:38;79.87;;;21.37;;
19095;SDS011;9680;52.520;13.332;2024-03-07T03:15:06;61.97;;;19.37;;
19095;SDS011;9680;52.520;13.332;2024-03-07T03:17:36;78.93;;;21.83;;
19095;SDS011;9680;52.520;13.332;2024-03-07T03:20:03;85.43;;;22.23;;
19095;SDS011;9680;52.520;13.332;2024-03-07T03:22:40;74.73;;;21.47;;
19095;SDS011;9680;52.520;13.332;2024-03-07T03:25:09;79.70;;;21.50;;
19095;SDS011;9680;52.520;13.332;2024-03-07T03:27:37;90.77;;;22.43;;
19095;SDS011;9680;52.520;13.332;2024-03-07T03:30:06;78.67;;;21.97;;
19095;SDS011;9680;52.520;13.332;2024-03-07T03:32:38;84.90;;;21.13;;
19095;SDS011;9680;52.520;13.332;2024-03-07T03:35:06;74.93;;;20.60;;
19095;SDS011;9680;52.520;13.332;2024-03-07T03:37:38;91.27;;;23.33;;
19095;SDS011;9680;52.520;13.332;2024-03-07T03:40:07;79.83;;;22.20;;
19095;SDS011;9680;52.520;13.332;2024-03-07T03:42:36;94.60;;;23.13;;
19095;SDS011;9680;52.520;13.332;2024-03-07T03:45:05;82.60;;;21.67;;
19095;SDS011;9680;52.520;13.332;2024-03-07T03:47:33;83.97;;;21.73;;
19095;SDS011;9680;52.520;13.332;2024-03-07T03:50:01;92.20;;;21.00;;
19095;SDS011;9680;52.520;13.332;2024-03-07T03:52:29;86.20;;;22.17;;
19095;SDS011;9680;52.520;13.332;2024-03-07T03:54:56;84.37;;;22.10;;
19095;SDS011;9680;52.520;13.332;2024-03-07T03:57:23;71.03;;;21.47;;
19095;SDS011;9680;52.520;13.332;2024-03-07T03:59:52;79.27;;;21.40;;
19095;SDS011;9680;52.520;13.332;2024-03-07T04:02:20;78.57;;;22.27;;
19095;SDS011;9680;52.520;13.332;2024-03-07T04:04:47;90.13;;;21.77;;
19095;SDS011;9680;52.520;13.332;2024-03-07T04:07:18;72.33;;;21.70;;
19095;SDS011;9680;52.520;13.332;2024-03-07T04:09:45;86.83;;;22.13;;
19095;SDS011;9680;52.520;13.332;2024-03-07T04:12:12;67.83;;;20.10;;
19095;SDS011;9680;52.520;13.332;2024-03-07T04:14:40;76.33;;;21.60;;
19095;SDS011;9680;52.520;13.332;2024-03-07T04:17:09;64.17;;;19.57;;
19095;SDS011;9680;52.520;13.332;2024-03-07T04:19:39;66.30;;;20.43;;
19095;SDS011;9680;52.520;13.332;2024-03-07T04:22:06;81.93;;;21.43;;
19095;SDS011;9680;52.520;13.332;2024-03-07T04:24:34;72.93;;;20.80;;
19095;SDS011;9680;52.520;13.332;2024-03-07T04:27:01;72.47;;;20.77;;
19095;SDS011;9680;52.520;13.332;2024-03-07T04:29:29;73.53;;;21.07;;
19095;SDS011;9680;52.520;13.332;2024-03-07T04:31:56;68.83;;;21.40;;
19095;SDS011;9680;52.520;13.332;2024-03-07T04:34:24;70.10;;;20.77;;
19095;SDS011;9680;52.520;13.332;2024-03-07T04:36:51;64.20;;;20.50;;
19095;SDS011;9680;52.520;13.332;2024-03-07T04:39:18;66.67;;;19.50;;
19095;SDS011;9680;52.520;13.332;2024-03-07T04:41:55;71.00;;;20.80;;
19095;SDS011;9680;52.520;13.332;2024-03-07T04:44:22;71.63;;;20.40;;
19095;SDS011;9680;52.520;13.332;2024-03-07T04:46:50;61.73;;;20.23;;
19095;SDS011;9680;52.520;13.332;2024-03-07T04:49:20;62.07;;;19.43;;
19095;SDS011;9680;52.520;13.332;2024-03-07T04:51:50;71.60;;;19.93;;
19095;SDS011;9680;52.520;13.332;2024-03-07T04:54:17;64.33;;;20.07;;
19095;SDS011;9680;52.520;13.332;2024-03-07T04:56:44;65.63;;;19.37;;
19095;SDS011;9680;52.520;13.332;2024-03-07T04:59:11;66.30;;;19.27;;
19095;SDS011;9680;52.520;13.332;2024-03-07T05:01:38;66.73;;;20.10;;
19095;SDS011;9680;52.520;13.332;2024-03-07T05:04:04;56.50;;;19.10;;
19095;SDS011;9680;52.520;13.332;2024-03-07T05:06:32;59.27;;;19.50;;
19095;SDS011;9680;52.520;13.332;2024-03-07T05:09:01;64.37;;;19.13;;
19095;SDS011;9680;52.520;13.332;2024-03-07T05:11:29;58.50;;;19.67;;
19095;SDS011;9680;52.520;13.332;2024-03-07T05:13:56;55.13;;;18.67;;
19095;SDS011;9680;52.520;13.332;2024-03-07T05:16:23;57.77;;;18.50;;
19095;SDS011;9680;52.520;13.332;2024-03-07T05:18:50;48.17;;;18.07;;
19095;SDS011;9680;52.520;13.332;2024-03-07T05:21:17;63.93;;;19.77;;
19095;SDS011;9680;52.520;13.332;2024-03-07T05:23:59;57.93;;;17.63;;
19095;SDS011;9680;52.520;13.332;2024-03-07T05:26:28;62.73;;;19.27;;
19095;SDS011;9680;52.520;13.332;2024-03-07T05:28:59;55.47;;;18.83;;
19095;SDS011;9680;52.520;13.332;2024-03-07T05:31:30;54.63;;;18.47;;
19095;SDS011;9680;52.520;13.332;2024-03-07T05:33:59;54.97;;;18.23;;
19095;SDS011;9680;52.520;13.332;2024-03-07T05:36:26;59.57;;;18.73;;
19095;SDS011;9680;52.520;13.332;2024-03-07T05:38:52;58.50;;;19.10;;
19095;SDS011;9680;52.520;13.332;2024-03-07T05:41:20;60.37;;;19.37;;
19095;SDS011;9680;52.520;13.332;2024-03-07T05:43:47;59.93;;;18.20;;
19095;SDS011;9680;52.520;13.332;2024-03-07T05:46:16;53.77;;;18.07;;
19095;SDS011;9680;52.520;13.332;2024-03-07T05:48:43;61.27;;;19.17;;
19095;SDS011;9680;52.520;13.332;2024-03-07T05:51:11;55.70;;;17.87;;
19095;SDS011;9680;52.520;13.332;2024-03-07T05:53:37;66.67;;;19.63;;
19095;SDS011;9680;52.520;13.332;2024-03-07T05:56:05;52.30;;;18.33;;
19095;SDS011;9680;52.520;13.332;2024-03-07T05:58:36;52.77;;;18.97;;
19095;SDS011;9680;52.520;13.332;2024-03-07T06:01:03;56.57;;;18.47;;
19095;SDS011;9680;52.520;13.332;2024-03-07T06:03:30;58.97;;;19.27;;
19095;SDS011;9680;52.520;13.332;2024-03-07T06:05:57;51.87;;;17.63;;
19095;SDS011;9680;52.520;13.332;2024-03-07T06:08:24;55.57;;;18.47;;
19095;SDS011;9680;52.520;13.332;2024-03-07T06:10:50;47.13;;;16.93;;
19095;SDS011;9680;52.520;13.332;2024-03-07T06:13:17;51.73;;;17.83;;
19095;SDS011;9680;52.520;13.332;2024-03-07T06:15:46;52.80;;;18.07;;
19095;SDS011;9680;52.520;13.332;2024-03-07T06:18:13;64.20;;;17.77;;
19095;SDS011;9680;52.520;13.332;2024-03-07T06:20:41;49.23;;;16.37;;
19095;SDS011;9680;52.520;13.332;2024-03-07T06:23:08;47.83;;;16.60;;
19095;SDS011;9680;52.520;13.332;2024-03-07T06:25:37;48.63;;;17.33;;
19095;SDS011;9680;52.520;13.332;2024-03-07T06:28:12;45.87;;;16.13;;
19095;SDS011;9680;52.520;13.332;2024-03-07T06:30:40;52.87;;;16.57;;
19095;SDS011;9680;52.520;13.332;2024-03-07T06:33:09;47.40;;;15.97;;
19095;SDS011;9680;52.520;13.332;2024-03-07T06:35:37;47.93;;;16.20;;
19095;SDS011;9680;52.520;13.332;2024-03-07T06:38:05;47.63;;;16.00;;
19095;SDS011;9680;52.520;13.332;2024-03-07T06:40:33;53.63;;;16.13;;
19095;SDS011;9680;52.520;13.332;2024-03-07T06:43:00;47.00;;;15.43;;
19095;SDS011;9680;52.520;13.332;2024-03-07T06:45:28;52.30;;;16.10;;
19095;SDS011;9680;52.520;13.332;2024-03-07T06:47:56;45.37;;;15.63;;
19095;SDS011;9680;52.520;13.332;2024-03-07T06:50:24;43.83;;;14.77;;
19095;SDS011;9680;52.520;13.332;2024-03-07T06:52:50;43.80;;;15.33;;
19095;SDS011;9680;52.520;13.332;2024-03-07T06:55:17;40.40;;;14.83;;
19095;SDS011;9680;52.520;13.332;2024-03-07T06:57:45;41.47;;;14.73;;
19095;SDS011;9680;52.520;13.332;2024-03-07T07:00:12;38.43;;;14.30;;
19095;SDS011;9680;52.520;13.332;2024-03-07T07:02:40;42.73;;;14.53;;
19095;SDS011;9680;52.520;13.332;2024-03-07T07:05:07;41.63;;;15.17;;
19095;SDS011;9680;52.520;13.332;2024-03-07T07:07:38;39.83;;;14.27;;
19095;SDS011;9680;52.520;13.332;2024-03-07T07:10:07;39.87;;;14.17;;
19095;SDS011;9680;52.520;13.332;2024-03-07T07:12:36;40.13;;;14.37;;
19095;SDS011;9680;52.520;13.332;2024-03-07T07:15:03;40.73;;;13.70;;
19095;SDS011;9680;52.520;13.332;2024-03-07T07:17:30;39.40;;;12.87;;
19095;SDS011;9680;52.520;13.332;2024-03-07T07:19:58;35.60;;;13.27;;
19095;SDS011;9680;52.520;13.332;2024-03-07T07:22:25;35.93;;;13.37;;
19095;SDS011;9680;52.520;13.332;2024-03-07T07:24:53;29.70;;;12.47;;
19095;SDS011;9680;52.520;13.332;2024-03-07T07:27:24;36.50;;;13.10;;
19095;SDS011;9680;52.520;13.332;2024-03-07T07:29:51;40.40;;;13.60;;
19095;SDS011;9680;52.520;13.332;2024-03-07T07:32:18;32.30;;;11.83;;
19095;SDS011;9680;52.520;13.332;2024-03-07T07:34:48;38.67;;;13.47;;
19095;SDS011;9680;52.520;13.332;2024-03-07T07:37:14;37.87;;;12.57;;
19095;SDS011;9680;52.520;13.332;2024-03-07T07:39:41;40.17;;;13.57;;
19095;SDS011;9680;52.520;13.332;2024-03-07T07:42:09;40.13;;;12.70;;
19095;SDS011;9680;52.520;13.332;2024-03-07T07:44:36;33.00;;;12.47;;
19095;SDS011;9680;52.520;13.332;2024-03-07T07:47:03;31.47;;;11.93;;
19095;SDS011;9680;52.520;13.332;2024-03-07T07:49:31;39.13;;;13.40;;
19095;SDS011;9680;52.520;13.332;2024-03-07T07:51:57;36.20;;;13.20;;
19095;SDS011;9680;52.520;13.332;2024-03-07T07:54:25;31.93;;;12.00;;
19095;SDS011;9680;52.520;13.332;2024-03-07T07:56:52;31.13;;;11.93;;
19095;SDS011;9680;52.520;13.332;2024-03-07T07:59:20;28.70;;;10.77;;
19095;SDS011;9680;52.520;13.332;2024-03-07T08:01:50;35.10;;;11.47;;
19095;SDS011;9680;52.520;13.332;2024-03-07T08:04:20;34.63;;;11.80;;
19095;SDS011;9680;52.520;13.332;2024-03-07T08:06:48;32.93;;;10.80;;
19095;SDS011;9680;52.520;13.332;2024-03-07T08:09:15;30.57;;;11.13;;
19095;SDS011;9680;52.520;13.332;2024-03-07T08:11:42;30.37;;;10.70;;
19095;SDS011;9680;52.520;13.332;2024-03-07T08:14:09;28.50;;;11.43;;
19095;SDS011;9680;52.520;13.332;2024-03-07T08:16:37;35.53;;;12.47;;
19095;SDS011;9680;52.520;13.332;2024-03-07T08:19:04;35.73;;;12.13;;
19095;SDS011;9680;52.520;13.332;2024-03-07T08:21:32;30.07;;;12.07;;
19095;SDS011;9680;52.520;13.332;2024-03-07T08:23:58;30.73;;;11.93;;
19095;SDS011;9680;52.520;13.332;2024-03-07T08:26:28;40.90;;;11.87;;
19095;SDS011;9680;52.520;13.332;2024-03-07T08:28:55;28.73;;;11.93;;
19095;SDS011;9680;52.520;13.332;2024-03-07T08:31:23;32.33;;;11.53;;
19095;SDS011;9680;52.520;13.332;2024-03-07T08:33:52;28.50;;;10.37;;
19095;SDS011;9680;52.520;13.332;2024-03-07T08:36:19;25.03;;;10.57;;
19095;SDS011;9680;52.520;13.332;2024-03-07T08:38:47;25.90;;;10.37;;
19095;SDS011;9680;52.520;13.332;2024-03-07T08:41:16;31.03;;;10.60;;
19095;SDS011;9680;52.520;13.332;2024-03-07T08:43:43;25.83;;;11.03;;
19095;SDS011;9680;52.520;13.332;2024-03-07T08:46:11;27.43;;;10.10;;
19095;SDS011;9680;52.520;13.332;2024-03-07T08:48:38;27.07;;;10.80;;
19095;SDS011;9680;52.520;13.332;2024-03-07T08:51:06;27.40;;;10.10;;
19095;SDS011;9680;52.520;13.332;2024-03-07T08:53:33;24.90;;;9.80;;
19095;SDS011;9680;52.520;13.332;2024-03-07T08:56:01;27.93;;;10.03;;
19095;SDS011;9680;52.520;13.332;2024-03-07T08:58:28;23.70;;;9.80;;
19095;SDS011;9680;52.520;13.332;2024-03-07T09:00:55;23.67;;;9.47;;
19095;SDS011;9680;52.520;13.332;2024-03-07T09:03:22;30.77;;;9.77;;
19095;SDS011;9680;52.520;13.332;2024-03-07T09:05:49;28.27;;;10.67;;
19095;SDS011;9680;52.520;13.332;2024-03-07T09:08:18;30.27;;;11.27;;
19095;SDS011;9680;52.520;13.332;2024-03-07T09:10:45;23.57;;;9.40;;
19095;SDS011;9680;52.520;13.332;2024-03-07T09:13:12;24.50;;;9.80;;
19095;SDS011;9680;52.520;13.332;2024-03-07T09:15:38;19.87;;;9.07;;
19095;SDS011;9680;52.520;13.332;2024-03-07T09:18:05;26.50;;;9.63;;
19095;SDS011;9680;52.520;13.332;2024-03-07T09:20:33;21.10;;;9.07;;
19095;SDS011;9680;52.520;13.332;2024-03-07T09:23:00;24.67;;;9.00;;
19095;SDS011;9680;52.520;13.332;2024-03-07T09:25:28;21.50;;;9.27;;
19095;SDS011;9680;52.520;13.332;2024-03-07T09:27:58;22.43;;;8.97;;
19095;SDS011;9680;52.520;13.332;2024-03-07T09:30:25;19.57;;;8.57;;
19095;SDS011;9680;52.520;13.332;2024-03-07T09:32:53;19.13;;;8.67;;
19095;SDS011;9680;52.520;13.332;2024-03-07T09:35:21;21.17;;;8.57;;
19095;SDS011;9680;52.520;13.332;2024-03-07T09:37:48;22.57;;;8.90;;
19095;SDS011;9680;52.520;13.332;2024-03-07T09:40:15;31.93;;;9.50;;
19095;SDS011;9680;52.520;13.332;2024-03-07T09:42:47;23.00;;;9.03;;
19095;SDS011;9680;52.520;13.332;2024-03-07T09:45:39;20.53;;;8.40;;
19095;SDS011;9680;52.520;13.332;2024-03-07T09:48:08;20.20;;;8.60;;
19095;SDS011;9680;52.520;13.332;2024-03-07T09:50:35;22.00;;;8.50;;
19095;SDS011;9680;52.520;13.332;2024-03-07T09:53:03;21.27;;;8.97;;
19095;SDS011;9680;52.520;13.332;2024-03-07T09:55:30;20.80;;;9.03;;
19095;SDS011;9680;52.520;13.332;2024-03-07T09:58:01;21.73;;;8.47;;
19095;SDS011;9680;52.520;13.332;2024-03-07T10:00:32;19.43;;;8.47;;
19095;SDS011;9680;52.520;13.332;2024-03-07T10:03:04;18.33;;;7.90;;
19095;SDS011;9680;52.520;13.332;2024-03-07T10:05:33;21.27;;;8.80;;
19095;SDS011;9680;52.520;13.332;2024-03-07T10:08:01;19.83;;;8.23;;
19095;SDS011;9680;52.520;13.332;2024-03-07T10:10:28;28.17;;;8.73;;
19095;SDS011;9680;52.520;13.332;2024-03-07T10:12:56;17.17;;;7.83;;
19095;SDS011;9680;52.520;13.332;2024-03-07T10:15:28;21.17;;;7.80;;
19095;SDS011;9680;52.520;13.332;2024-03-07T10:17:54;21.87;;;7.80;;
19095;SDS011;9680;52.520;13.332;2024-03-07T10:20:21;20.03;;;8.50;;
19095;SDS011;9680;52.520;13.332;2024-03-07T10:22:49;18.33;;;7.53;;
19095;SDS011;9680;52.520;13.332;2024-03-07T10:25:17;19.57;;;8.57;;
19095;SDS011;9680;52.520;13.332;2024-03-07T10:27:45;17.80;;;7.87;;
19095;SDS011;9680;52.520;13.332;2024-03-07T10:30:14;18.50;;;8.13;;
19095;SDS011;9680;52.520;13.332;2024-03-07T10:32:47;18.27;;;8.30;;
19095;SDS011;9680;52.520;13.332;2024-03-07T10:35:19;20.53;;;7.33;;
19095;SDS011;9680;52.520;13.332;2024-03-07T10:37:48;23.83;;;7.90;;
19095;SDS011;9680;52.520;13.332;2024-03-07T10:40:15;19.73;;;8.03;;
19095;SDS011;9680;52.520;13.332;2024-03-07T10:42:45;17.33;;;7.20;;
19095;SDS011;9680;52.520;13.332;2024-03-07T10:45:17;16.60;;;7.80;;
19095;SDS011;9680;52.520;13.332;2024-03-07T10:47:49;19.07;;;7.70;;
19095;SDS011;9680;52.520;13.332;2024-03-07T10:50:24;25.23;;;8.20;;
19095;SDS011;9680;52.520;13.332;2024-03-07T10:53:07;21.03;;;7.90;;
19095;SDS011;9680;52.520;13.332;2024-03-07T10:55:44;19.33;;;7.03;;
19095;SDS011;9680;52.520;13.332;2024-03-07T10:58:22;22.37;;;7.67;;
19095;SDS011;9680;52.520;13.332;2024-03-07T11:00:58;19.40;;;7.67;;
19095;SDS011;9680;52.520;13.332;2024-03-07T11:03:32;20.97;;;7.30;;
19095;SDS011;9680;52.520;13.332;2024-03-07T11:06:01;20.40;;;7.77;;
19095;SDS011;9680;52.520;13.332;2024-03-07T11:08:31;23.10;;;8.27;;
19095;SDS011;9680;52.520;13.332;2024-03-07T11:10:59;21.83;;;7.63;;
19095;SDS011;9680;52.520;13.332;2024-03-07T11:13:27;16.83;;;7.33;;
19095;SDS011;9680;52.520;13.332;2024-03-07T11:15:55;22.53;;;7.47;;
19095;SDS011;9680;52.520;13.332;2024-03-07T11:18:25;20.63;;;7.57;;
19095;SDS011;9680;52.520;13.332;2024-03-07T11:20:53;21.33;;;7.43;;
19095;SDS011;9680;52.520;13.332;2024-03-07T11:23:25;16.27;;;7.40;;
19095;SDS011;9680;52.520;13.332;2024-03-07T11:25:54;18.33;;;7.17;;
19095;SDS011;9680;52.520;13.332;2024-03-07T11:28:27;22.87;;;8.57;;
19095;SDS011;9680;52.520;13.332;2024-03-07T11:36:45;20.60;;;7.77;;
19095;SDS011;9680;52.520;13.332;2024-03-07T11:42:08;18.13;;;7.53;;
19095;SDS011;9680;52.520;13.332;2024-03-07T11:44:34;26.07;;;8.77;;
19095;SDS011;9680;52.520;13.332;2024-03-07T11:47:05;16.17;;;7.13;;
19095;SDS011;9680;52.520;13.332;2024-03-07T11:49:35;21.70;;;8.53;;
19095;SDS011;9680;52.520;13.332;2024-03-07T11:52:03;20.20;;;8.00;;
19095;SDS011;9680;52.520;13.332;2024-03-07T11:54:37;16.27;;;7.37;;
19095;SDS011;9680;52.520;13.332;2024-03-07T11:57:05;18.67;;;8.30;;
19095;SDS011;9680;52.520;13.332;2024-03-07T11:59:38;18.13;;;8.27;;
19095;SDS011;9680;52.520;13.332;2024-03-07T12:02:10;19.03;;;7.53;;
19095;SDS011;9680;52.520;13.332;2024-03-07T12:04:39;18.53;;;7.73;;
19095;SDS011;9680;52.520;13.332;2024-03-07T12:07:08;19.70;;;7.97;;
19095;SDS011;9680;52.520;13.332;2024-03-07T12:09:36;18.63;;;7.70;;
19095;SDS011;9680;52.520;13.332;2024-03-07T12:12:04;18.67;;;8.60;;
19095;SDS011;9680;52.520;13.332;2024-03-07T12:14:31;22.00;;;8.70;;
19095;SDS011;9680;52.520;13.332;2024-03-07T12:16:59;20.33;;;8.23;;
19095;SDS011;9680;52.520;13.332;2024-03-07T12:19:29;20.77;;;8.53;;
19095;SDS011;9680;52.520;13.332;2024-03-07T12:21:59;22.63;;;8.70;;
19095;SDS011;9680;52.520;13.332;2024-03-07T12:24:28;21.67;;;8.97;;
19095;SDS011;9680;52.520;13.332;2024-03-07T12:27:05;19.47;;;8.70;;
19095;SDS011;9680;52.520;13.332;2024-03-07T12:29:32;19.10;;;8.83;;
19095;SDS011;9680;52.520;13.332;2024-03-07T12:31:59;20.23;;;8.73;;
19095;SDS011;9680;52.520;13.332;2024-03-07T12:34:26;21.83;;;8.67;;
19095;SDS011;9680;52.520;13.332;2024-03-07T12:36:55;24.90;;;8.63;;
19095;SDS011;9680;52.520;13.332;2024-03-07T12:39:22;22.57;;;8.57;;
19095;SDS011;9680;52.520;13.332;2024-03-07T12:41:57;20.77;;;9.13;;
19095;SDS011;9680;52.520;13.332;2024-03-07T12:44:23;19.77;;;8.60;;
19095;SDS011;9680;52.520;13.332;2024-03-07T12:46:51;20.50;;;8.97;;
19095;SDS011;9680;52.520;13.332;2024-03-07T12:49:18;20.13;;;8.83;;
19095;SDS011;9680;52.520;13.332;2024-03-07T12:51:45;20.00;;;8.93;;
19095;SDS011;9680;52.520;13.332;2024-03-07T12:54:12;18.87;;;8.23;;
19095;SDS011;9680;52.520;13.332;2024-03-07T12:56:39;22.30;;;9.50;;
19095;SDS011;9680;52.520;13.332;2024-03-07T12:59:10;22.80;;;9.73;;
19095;SDS011;9680;52.520;13.332;2024-03-07T13:01:37;21.50;;;9.40;;
19095;SDS011;9680;52.520;13.332;2024-03-07T13:04:09;39.90;;;10.00;;
19095;SDS011;9680;52.520;13.332;2024-03-07T13:06:37;22.63;;;9.13;;
19095;SDS011;9680;52.520;13.332;2024-03-07T13:09:08;21.67;;;8.97;;
19095;SDS011;9680;52.520;13.332;2024-03-07T13:11:36;21.83;;;8.50;;
19095;SDS011;9680;52.520;13.332;2024-03-07T13:14:07;20.00;;;8.60;;
19095;SDS011;9680;52.520;13.332;2024-03-07T13:16:35;22.70;;;8.77;;
19095;SDS011;9680;52.520;13.332;2024-03-07T13:19:01;18.43;;;8.27;;
19095;SDS011;9680;52.520;13.332;2024-03-07T13:21:30;22.37;;;9.23;;
19095;SDS011;9680;52.520;13.332;2024-03-07T13:23:57;22.00;;;9.23;;
19095;SDS011;9680;52.520;13.332;2024-03-07T13:26:25;21.97;;;9.23;;
19095;SDS011;9680;52.520;13.332;2024-03-07T13:28:55;22.33;;;9.83;;
19095;SDS011;9680;52.520;13.332;2024-03-07T13:31:27;23.90;;;9.47;;
19095;SDS011;9680;52.520;13.332;2024-03-07T13:33:55;22.37;;;8.90;;
19095;SDS011;9680;52.520;13.332;2024-03-07T13:36:21;21.93;;;9.67;;
19095;SDS011;9680;52.520;13.332;2024-03-07T13:38:50;23.37;;;9.27;;
19095;SDS011;9680;52.520;13.332;2024-03-07T13:41:19;20.47;;;9.17;;
19095;SDS011;9680;52.520;13.332;2024-03-07T13:43:46;19.70;;;8.67;;
19095;SDS011;9680;52.520;13.332;2024-03-07T13:46:13;19.83;;;8.63;;
19095;SDS011;9680;52.520;13.332;2024-03-07T13:48:44;21.03;;;8.30;;
19095;SDS011;9680;52.520;13.332;2024-03-07T13:51:11;22.03;;;9.30;;
19095;SDS011;9680;52.520;13.332;2024-03-07T13:53:40;25.57;;;8.93;;
19095;SDS011;9680;52.520;13.332;2024-03-07T13:59:30;25.67;;;9.70;;
19095;SDS011;9680;52.520;13.332;2024-03-07T14:02:16;22.43;;;9.70;;
19095;SDS011;9680;52.520;13.332;2024-03-07T14:05:11;21.00;;;9.23;;
19095;SDS011;9680;52.520;13.332;2024-03-07T14:08:00;26.03;;;9.77;;
19095;SDS011;9680;52.520;13.332;2024-03-07T14:13:44;25.33;;;8.90;;
19095;SDS011;9680;52.520;13.332;2024-03-07T14:23:01;23.57;;;9.63;;
19095;SDS011;9680;52.520;13.332;2024-03-07T14:25:47;22.67;;;9.33;;
19095;SDS011;9680;52.520;13.332;2024-03-07T14:28:42;21.97;;;9.87;;
19095;SDS011;9680;52.520;13.332;2024-03-07T14:31:19;28.43;;;10.67;;
19095;SDS011;9680;52.520;13.332;2024-03-07T14:33:48;21.47;;;9.10;;
19095;SDS011;9680;52.520;13.332;2024-03-07T14:36:32;23.97;;;9.93;;
19095;SDS011;9680;52.520;13.332;2024-03-07T14:39:02;22.13;;;9.63;;
19095;SDS011;9680;52.520;13.332;2024-03-07T14:41:40;23.17;;;9.07;;
19095;SDS011;9680;52.520;13.332;2024-03-07T14:44:12;28.37;;;9.97;;
19095;SDS011;9680;52.520;13.332;2024-03-07T14:46:40;22.27;;;9.70;;
19095;SDS011;9680;52.520;13.332;2024-03-07T14:49:08;22.77;;;9.77;;
19095;SDS011;9680;52.520;13.332;2024-03-07T14:51:39;26.43;;;9.07;;
19095;SDS011;9680;52.520;13.332;2024-03-07T14:54:05;22.23;;;8.67;;
19095;SDS011;9680;52.520;13.332;2024-03-07T14:56:33;21.93;;;9.40;;